Iver Bright — ZDKU4 — position and weather

sailwx.info

Track history (hours):
 
Tides and Currents Weather Stations Pressure Air Temp Water Temp Dewpoint Dewpoint Depression Visibility Wind Speed Wind Dir Waves Ship Positions

Iver Bright

Last reported at 2018-Feb-12 15:13 UTC. Time now 2018-Feb-24 20:02 UTC.
Position N 36°03' E 014°46'.
Warning: this ship's position is 12 days out of date.

Length 111 m; draft 5.3 m.

Type: Tanker. MMSI: 236111811.

Date/timePositionNaut miles runAvg speedWind from/ knotsBaromVisibWave heightAir tempDewpointWater temp
2018-Feb-12 15:13N 36°03' E 014°46'312.0
2018-Feb-12 15:00N 36°01' E 014°44'612.1
2018-Feb-12 14:30N 35°56' E 014°39'611.7
2018-Feb-12 14:00N 35°51' E 014°37'1 1.4
2018-Feb-12 13:30N 35°50' E 014°36'0 0.0
2018-Feb-12 12:57N 35°50' E 014°36'0 0.0
2018-Feb-12 12:30N 35°50' E 014°36'0 0.0
2018-Feb-12 12:00N 35°50' E 014°36'0 0.0
2018-Feb-12 11:30N 35°50' E 014°36'0 0.0
2018-Feb-12 11:00N 35°50' E 014°36'0 0.0
2018-Feb-12 10:27N 35°50' E 014°36'0 0.0
2018-Feb-12 09:57N 35°50' E 014°36'0 0.0
2018-Feb-12 09:30N 35°50' E 014°36'0 0.0
2018-Feb-12 09:00N 35°50' E 014°36'0 0.0
2018-Feb-12 08:27N 35°50' E 014°36'0 0.0
2018-Feb-12 07:57N 35°50' E 014°36'0 0.1
2018-Feb-12 07:27N 35°50' E 014°36'0 0.0
2018-Feb-12 06:57N 35°50' E 014°36'0 0.0
2018-Feb-12 06:15N 35°50' E 014°36'0 0.0
2018-Feb-12 06:00N 35°50' E 014°36'0 0.0
2018-Feb-12 05:27N 35°50' E 014°36'0 0.0
2018-Feb-12 04:54N 35°50' E 014°36'0 0.1
2018-Feb-12 04:27N 35°50' E 014°36'0 0.1
2018-Feb-12 04:00N 35°50' E 014°36'0 0.0
2018-Feb-12 03:30N 35°50' E 014°36'0 0.0
2018-Feb-12 03:00N 35°50' E 014°36'0 0.0
2018-Feb-12 02:30N 35°50' E 014°36'0 0.0
2018-Feb-12 02:00N 35°50' E 014°36'0 0.0
2018-Feb-12 01:30N 35°50' E 014°36'0 0.0
2018-Feb-12 01:00N 35°50' E 014°36'2 3.6
2018-Feb-12 00:30N 35°49' E 014°37'510.8
2018-Feb-12 00:00N 35°45' E 014°42'5 0.6
2018-Feb-11 15:48N 35°43' E 014°48'26 1.1
2018-Feb-10 16:42N 36°09' E 014°45'0 1.6
2018-Feb-10 16:27N 36°09' E 014°45'1 1.5
2018-Feb-10 16:00N 36°10' E 014°44'1 1.5
2018-Feb-10 15:30N 36°10' E 014°43'1 1.6
2018-Feb-10 15:00N 36°10' E 014°42'0 0.7
2018-Feb-10 14:30N 36°10' E 014°42'4 7.3
2018-Feb-10 14:00N 36°07' E 014°44'4 7.5
2018-Feb-10 13:24N 36°03' E 014°47'3 6.8
2018-Feb-10 13:00N 36°01' E 014°48'0 0.9
2018-Feb-10 12:26N 36°00' E 014°48'1 2.1
2018-Feb-10 11:58N 36°01' E 014°47'1 2.0
2018-Feb-10 11:20N 36°02' E 014°46'1 2.0
2018-Feb-10 11:00N 36°03' E 014°45'4 1.8
2018-Feb-10 08:57N 36°05' E 014°42'1 1.8
2018-Feb-10 08:30N 36°06' E 014°41'1 1.9
2018-Feb-10 08:00N 36°07' E 014°41'1 2.0
2018-Feb-10 07:23N 36°08' E 014°41'1 2.1
2018-Feb-10 06:59N 36°09' E 014°40'2 2.4
2018-Feb-10 06:18N 36°10' E 014°40'1 3.2
2018-Feb-10 06:00N 36°11' E 014°39'5 9.0
2018-Feb-10 05:30N 36°10' E 014°33'5 9.9
2018-Feb-10 05:00N 36°11' E 014°27'510.6
2018-Feb-10 04:29N 36°11' E 014°21'2 4.6
2018-Feb-10 03:58N 36°12' E 014°18'1 1.7
2018-Feb-10 03:28N 36°13' E 014°18'1 1.6
2018-Feb-10 03:00N 36°13' E 014°19'1 1.5
2018-Feb-10 02:30N 36°14' E 014°19'1 1.6
2018-Feb-10 02:00N 36°14' E 014°20'1 1.7
2018-Feb-10 01:29N 36°15' E 014°21'1 1.7
2018-Feb-10 01:00N 36°15' E 014°22'1 1.7
2018-Feb-10 00:30N 36°15' E 014°23'1 1.8
2018-Feb-10 00:00N 36°15' E 014°24'1 1.8
2018-Feb-09 23:30N 36°15' E 014°25'1 1.9
2018-Feb-09 23:00N 36°15' E 014°26'0 1.9
2018-Feb-09 22:45N 36°15' E 014°27'7 1.0
2018-Feb-09 16:00N 36°12' E 014°35'13 9.0
2018-Feb-09 14:30N 36°12' E 014°18'2110.7
2018-Feb-09 12:30N 36°20' E 013°54'510.5
2018-Feb-09 12:00N 36°23' E 013°48'  
2018-Feb-03 18:01N 36°35' E 014°06'7 9.8
2018-Feb-03 17:21N 36°33' E 014°14'5 9.8
2018-Feb-03 16:52N 36°32' E 014°19'910.0
2018-Feb-03 15:59N 36°29' E 014°30'510.0
2018-Feb-03 15:29N 36°28' E 014°36'31 9.6
2018-Feb-03 12:18N 36°33' E 015°13'  
Track history (hours):
 
Tides and Currents Weather Stations Pressure Air Temp Water Temp Dewpoint Dewpoint Depression Visibility Wind Speed Wind Dir Waves Ship Positions

Iver Bright

Last reported at 2018-Feb-12 15:13 UTC. Time now 2018-Feb-24 20:02 UTC.
Position N 36°03' E 014°46'.
Warning: this ship's position is 12 days out of date.

Length 111 m; draft 5.3 m.

Type: Tanker. MMSI: 236111811.

Date/timePositionNaut miles runAvg speedWind from/ knotsBaromVisibWave heightAir tempDewpointWater temp
2018-Feb-12 15:13N 36°03' E 014°46'312.0
2018-Feb-12 15:00N 36°01' E 014°44'612.1
2018-Feb-12 14:30N 35°56' E 014°39'611.7
2018-Feb-12 14:00N 35°51' E 014°37'1 1.4
2018-Feb-12 13:30N 35°50' E 014°36'0 0.0
2018-Feb-12 12:57N 35°50' E 014°36'0 0.0
2018-Feb-12 12:30N 35°50' E 014°36'0 0.0
2018-Feb-12 12:00N 35°50' E 014°36'0 0.0
2018-Feb-12 11:30N 35°50' E 014°36'0 0.0
2018-Feb-12 11:00N 35°50' E 014°36'0 0.0
2018-Feb-12 10:27N 35°50' E 014°36'0 0.0
2018-Feb-12 09:57N 35°50' E 014°36'0 0.0
2018-Feb-12 09:30N 35°50' E 014°36'0 0.0
2018-Feb-12 09:00N 35°50' E 014°36'0 0.0
2018-Feb-12 08:27N 35°50' E 014°36'0 0.0
2018-Feb-12 07:57N 35°50' E 014°36'0 0.1
2018-Feb-12 07:27N 35°50' E 014°36'0 0.0
2018-Feb-12 06:57N 35°50' E 014°36'0 0.0
2018-Feb-12 06:15N 35°50' E 014°36'0 0.0
2018-Feb-12 06:00N 35°50' E 014°36'0 0.0
2018-Feb-12 05:27N 35°50' E 014°36'0 0.0
2018-Feb-12 04:54N 35°50' E 014°36'0 0.1
2018-Feb-12 04:27N 35°50' E 014°36'0 0.1
2018-Feb-12 04:00N 35°50' E 014°36'0 0.0
2018-Feb-12 03:30N 35°50' E 014°36'0 0.0
2018-Feb-12 03:00N 35°50' E 014°36'0 0.0
2018-Feb-12 02:30N 35°50' E 014°36'0 0.0
2018-Feb-12 02:00N 35°50' E 014°36'0 0.0
2018-Feb-12 01:30N 35°50' E 014°36'0 0.0
2018-Feb-12 01:00N 35°50' E 014°36'2 3.6
2018-Feb-12 00:30N 35°49' E 014°37'510.8
2018-Feb-12 00:00N 35°45' E 014°42'5 0.6
2018-Feb-11 15:48N 35°43' E 014°48'26 1.1
2018-Feb-10 16:42N 36°09' E 014°45'0 1.6
2018-Feb-10 16:27N 36°09' E 014°45'1 1.5
2018-Feb-10 16:00N 36°10' E 014°44'1 1.5
2018-Feb-10 15:30N 36°10' E 014°43'1 1.6
2018-Feb-10 15:00N 36°10' E 014°42'0 0.7
2018-Feb-10 14:30N 36°10' E 014°42'4 7.3
2018-Feb-10 14:00N 36°07' E 014°44'4 7.5
2018-Feb-10 13:24N 36°03' E 014°47'3 6.8
2018-Feb-10 13:00N 36°01' E 014°48'0 0.9
2018-Feb-10 12:26N 36°00' E 014°48'1 2.1
2018-Feb-10 11:58N 36°01' E 014°47'1 2.0
2018-Feb-10 11:20N 36°02' E 014°46'1 2.0
2018-Feb-10 11:00N 36°03' E 014°45'4 1.8
2018-Feb-10 08:57N 36°05' E 014°42'1 1.8
2018-Feb-10 08:30N 36°06' E 014°41'1 1.9
2018-Feb-10 08:00N 36°07' E 014°41'1 2.0
2018-Feb-10 07:23N 36°08' E 014°41'1 2.1
2018-Feb-10 06:59N 36°09' E 014°40'2 2.4
2018-Feb-10 06:18N 36°10' E 014°40'1 3.2
2018-Feb-10 06:00N 36°11' E 014°39'5 9.0
2018-Feb-10 05:30N 36°10' E 014°33'5 9.9
2018-Feb-10 05:00N 36°11' E 014°27'510.6
2018-Feb-10 04:29N 36°11' E 014°21'2 4.6
2018-Feb-10 03:58N 36°12' E 014°18'1 1.7
2018-Feb-10 03:28N 36°13' E 014°18'1 1.6
2018-Feb-10 03:00N 36°13' E 014°19'1 1.5
2018-Feb-10 02:30N 36°14' E 014°19'1 1.6
2018-Feb-10 02:00N 36°14' E 014°20'1 1.7
2018-Feb-10 01:29N 36°15' E 014°21'1 1.7
2018-Feb-10 01:00N 36°15' E 014°22'1 1.7
2018-Feb-10 00:30N 36°15' E 014°23'1 1.8
2018-Feb-10 00:00N 36°15' E 014°24'1 1.8
2018-Feb-09 23:30N 36°15' E 014°25'1 1.9
2018-Feb-09 23:00N 36°15' E 014°26'0 1.9
2018-Feb-09 22:45N 36°15' E 014°27'7 1.0
2018-Feb-09 16:00N 36°12' E 014°35'13 9.0
2018-Feb-09 14:30N 36°12' E 014°18'2110.7
2018-Feb-09 12:30N 36°20' E 013°54'510.5
2018-Feb-09 12:00N 36°23' E 013°48'  
2018-Feb-03 18:01N 36°35' E 014°06'7 9.8
2018-Feb-03 17:21N 36°33' E 014°14'5 9.8
2018-Feb-03 16:52N 36°32' E 014°19'910.0
2018-Feb-03 15:59N 36°29' E 014°30'510.0
2018-Feb-03 15:29N 36°28' E 014°36'31 9.6
2018-Feb-03 12:18N 36°33' E 015°13'  

Dump ship's entire track history